createdAt,value
2019-06-26T00:00:09.990Z,87.60
2019-06-26T00:02:38.236Z,87.80
2019-06-26T00:05:07.383Z,87.80
2019-06-26T00:07:35.688Z,88.30
2019-06-26T00:10:05.277Z,88.10
2019-06-26T00:12:33.500Z,88.10
2019-06-26T00:15:01.796Z,88.50
2019-06-26T00:17:30.065Z,88.70
2019-06-26T00:19:58.379Z,88.10
2019-06-26T00:22:26.841Z,88.40
2019-06-26T00:24:55.117Z,88.60
2019-06-26T00:27:23.425Z,88.70
2019-06-26T00:29:51.696Z,88.70
2019-06-26T00:32:19.931Z,88.70
2019-06-26T00:34:48.196Z,89.60
2019-06-26T00:37:16.426Z,89.10
2019-06-26T00:39:44.690Z,89.00
2019-06-26T00:42:12.945Z,89.20
2019-06-26T00:44:41.210Z,88.90
2019-06-26T00:47:09.442Z,89.20
2019-06-26T00:49:37.749Z,89.10
2019-06-26T00:52:05.978Z,89.60
2019-06-26T00:54:34.240Z,89.10
2019-06-26T00:57:02.497Z,89.40
2019-06-26T00:59:30.733Z,89.60
2019-06-26T01:01:58.997Z,89.40
2019-06-26T01:04:31.880Z,89.10
2019-06-26T01:07:00.131Z,89.40
2019-06-26T01:09:28.368Z,89.70
2019-06-26T01:11:56.624Z,89.50
2019-06-26T01:14:24.879Z,89.70
2019-06-26T01:16:53.157Z,90.10
2019-06-26T01:19:21.390Z,90.00
2019-06-26T01:21:49.647Z,90.00
2019-06-26T01:24:17.970Z,90.20
2019-06-26T01:26:46.244Z,90.70
2019-06-26T01:29:14.473Z,90.90
2019-06-26T01:31:42.741Z,90.50
2019-06-26T01:34:10.976Z,90.50
2019-06-26T01:36:39.247Z,90.40
2019-06-26T01:39:07.570Z,90.40
2019-06-26T01:41:35.884Z,90.30
2019-06-26T01:44:14.071Z,90.70
2019-06-26T01:46:34.154Z,90.80
2019-06-26T01:49:02.537Z,90.50
2019-06-26T01:51:30.981Z,90.60
2019-06-26T01:53:59.270Z,90.50
2019-06-26T01:56:27.533Z,90.30
2019-06-26T01:58:55.768Z,90.30
2019-06-26T02:01:24.259Z,90.70
2019-06-26T02:03:52.670Z,90.60
2019-06-26T02:06:20.925Z,90.80
2019-06-26T02:08:49.157Z,90.60
2019-06-26T02:11:17.426Z,90.50
2019-06-26T02:13:45.708Z,90.70
2019-06-26T02:16:13.969Z,90.60
2019-06-26T02:18:43.861Z,90.50
2019-06-26T02:21:12.148Z,90.70
2019-06-26T02:23:40.385Z,90.90
2019-06-26T02:26:08.635Z,90.60
2019-06-26T02:28:36.885Z,90.60
2019-06-26T02:31:05.126Z,90.70
2019-06-26T02:33:33.390Z,90.70
2019-06-26T02:36:01.650Z,91.10
2019-06-26T02:38:29.915Z,90.80
2019-06-26T02:40:58.173Z,90.70
2019-06-26T02:43:26.500Z,90.90
2019-06-26T02:45:54.749Z,91.10
2019-06-26T02:48:23.053Z,91.00
2019-06-26T02:50:51.309Z,90.90
2019-06-26T02:53:19.564Z,91.00
2019-06-26T02:55:47.793Z,91.10
2019-06-26T02:58:16.049Z,91.00
2019-06-26T03:00:44.291Z,91.10
2019-06-26T03:03:12.517Z,91.00
2019-06-26T03:05:40.777Z,91.00
2019-06-26T03:08:09.053Z,91.30
2019-06-26T03:10:37.296Z,91.30
2019-06-26T03:13:08.551Z,91.10
2019-06-26T03:15:36.813Z,91.10
2019-06-26T03:18:05.043Z,91.20
2019-06-26T03:20:42.297Z,91.20
2019-06-26T03:23:10.537Z,91.30
2019-06-26T03:25:38.798Z,91.40
2019-06-26T03:28:07.102Z,91.40
2019-06-26T03:30:35.362Z,91.10
2019-06-26T03:33:03.598Z,91.10
2019-06-26T03:35:31.885Z,91.30
2019-06-26T03:38:00.106Z,91.30
2019-06-26T03:40:28.372Z,91.80
2019-06-26T03:42:56.670Z,91.40
2019-06-26T03:45:26.391Z,91.30
2019-06-26T03:47:54.882Z,91.30
2019-06-26T03:50:23.126Z,91.30
2019-06-26T03:52:51.503Z,91.80
2019-06-26T03:55:19.764Z,91.50
2019-06-26T03:57:48.054Z,91.60
2019-06-26T04:00:17.976Z,91.50
2019-06-26T04:02:46.224Z,91.80
2019-06-26T04:05:14.479Z,92.10
2019-06-26T04:07:42.725Z,91.80
2019-06-26T04:10:11.253Z,91.80
2019-06-26T04:12:39.675Z,91.80
2019-06-26T04:15:08.105Z,91.80
2019-06-26T04:17:36.351Z,92.00
2019-06-26T04:20:07.703Z,92.00
2019-06-26T04:22:35.989Z,92.10
2019-06-26T04:25:06.237Z,92.20
2019-06-26T04:27:34.481Z,92.30
2019-06-26T04:30:02.797Z,92.30
2019-06-26T04:32:31.057Z,92.90
2019-06-26T04:34:59.331Z,93.30
2019-06-26T04:37:27.586Z,93.30
2019-06-26T04:39:55.827Z,93.10
2019-06-26T04:42:24.085Z,92.80
2019-06-26T04:44:52.335Z,92.70
2019-06-26T04:47:20.594Z,92.80
2019-06-26T04:49:48.836Z,92.70
2019-06-26T04:52:17.093Z,92.30
2019-06-26T04:54:45.331Z,92.10
2019-06-26T04:57:13.590Z,92.10
2019-06-26T04:59:41.914Z,92.20
2019-06-26T05:02:10.169Z,92.10
2019-06-26T05:04:38.423Z,92.30
2019-06-26T05:07:06.678Z,92.00
2019-06-26T05:09:34.932Z,92.10
2019-06-26T05:12:03.176Z,91.50
2019-06-26T05:14:31.421Z,91.50
2019-06-26T05:16:59.672Z,91.40
2019-06-26T05:19:27.954Z,91.30
2019-06-26T05:21:56.262Z,91.10
2019-06-26T05:24:24.498Z,91.00
2019-06-26T05:26:52.790Z,90.90
2019-06-26T05:29:21.049Z,91.00
2019-06-26T05:31:49.285Z,90.90
2019-06-26T05:34:17.563Z,90.80
2019-06-26T05:36:45.800Z,90.60
2019-06-26T05:39:14.070Z,90.40
2019-06-26T05:41:42.296Z,90.10
2019-06-26T05:44:10.557Z,90.00
2019-06-26T05:46:38.790Z,90.00
2019-06-26T05:49:07.052Z,90.00
2019-06-26T05:51:35.315Z,89.40
2019-06-26T05:54:06.272Z,88.70
2019-06-26T05:56:34.565Z,88.50
2019-06-26T05:59:02.838Z,87.70
2019-06-26T06:01:31.188Z,87.20
2019-06-26T06:03:59.435Z,86.60
2019-06-26T06:06:40.689Z,86.20
2019-06-26T06:08:57.666Z,86.70
2019-06-26T06:11:25.913Z,86.10
2019-06-26T06:13:54.244Z,85.80
2019-06-26T06:16:22.473Z,85.90
2019-06-26T06:18:50.749Z,85.60
2019-06-26T06:21:18.997Z,85.70
2019-06-26T06:23:47.245Z,86.10
2019-06-26T06:26:15.482Z,86.50
2019-06-26T06:28:43.712Z,86.30
2019-06-26T06:31:11.989Z,85.20
2019-06-26T06:33:40.350Z,84.50
2019-06-26T06:36:09.826Z,84.20
2019-06-26T06:38:38.267Z,83.80
2019-06-26T06:41:06.506Z,83.60
2019-06-26T06:43:34.750Z,83.50
2019-06-26T06:46:03.217Z,82.90
2019-06-26T06:48:31.628Z,81.80
2019-06-26T06:50:59.876Z,82.10
2019-06-26T06:53:28.197Z,82.20
2019-06-26T06:55:56.448Z,82.70
2019-06-26T06:58:24.742Z,82.00
2019-06-26T07:00:52.995Z,81.60
2019-06-26T07:03:22.054Z,81.30
2019-06-26T07:05:50.303Z,80.70
2019-06-26T07:08:18.578Z,81.70
2019-06-26T07:10:46.915Z,80.70
2019-06-26T07:13:15.183Z,80.80
2019-06-26T07:15:43.502Z,80.20
2019-06-26T07:18:11.745Z,80.00
2019-06-26T07:20:40.175Z,78.80
2019-06-26T07:23:08.408Z,78.40
2019-06-26T07:25:36.677Z,77.70
2019-06-26T07:28:04.959Z,77.20
2019-06-26T07:30:33.310Z,75.00
2019-06-26T07:33:01.581Z,76.10
2019-06-26T07:35:29.820Z,76.80
2019-06-26T07:38:00.241Z,75.20
2019-06-26T07:40:28.037Z,74.40
2019-06-26T07:42:56.304Z,73.90
2019-06-26T07:45:24.564Z,73.10
2019-06-26T07:47:52.876Z,72.00
2019-06-26T07:50:21.105Z,72.60
2019-06-26T07:52:49.384Z,72.20
2019-06-26T07:55:17.687Z,71.80
2019-06-26T07:57:45.941Z,72.00
2019-06-26T08:00:15.146Z,70.10
2019-06-26T08:02:43.409Z,68.60
2019-06-26T08:05:11.640Z,68.80
2019-06-26T08:07:39.889Z,70.00
2019-06-26T08:10:08.132Z,69.70
2019-06-26T08:12:36.385Z,68.00
2019-06-26T08:15:06.185Z,67.20
2019-06-26T08:17:34.449Z,66.60
2019-06-26T08:20:02.688Z,66.70
2019-06-26T08:22:30.952Z,67.40
2019-06-26T08:24:59.205Z,67.30
2019-06-26T08:27:27.461Z,67.30
2019-06-26T08:29:55.806Z,67.10
2019-06-26T08:32:25.999Z,66.70
2019-06-26T08:34:54.077Z,66.00
2019-06-26T08:37:22.364Z,64.70
2019-06-26T08:39:50.601Z,64.20
2019-06-26T08:42:19.002Z,63.90
2019-06-26T08:44:47.302Z,63.60
2019-06-26T08:47:15.544Z,64.00
2019-06-26T08:49:43.801Z,65.10
2019-06-26T08:52:12.050Z,66.00
2019-06-26T08:54:40.321Z,62.70
2019-06-26T08:57:08.566Z,63.40
2019-06-26T08:59:36.809Z,65.90
2019-06-26T09:02:05.045Z,65.10
2019-06-26T09:04:33.313Z,61.80
2019-06-26T09:07:01.556Z,61.50
2019-06-26T09:09:29.817Z,62.50
2019-06-26T09:11:58.045Z,62.00
2019-06-26T09:14:26.381Z,61.10
2019-06-26T09:16:54.635Z,62.90
2019-06-26T09:19:22.885Z,61.60
2019-06-26T09:21:51.120Z,61.30
2019-06-26T09:24:19.392Z,62.70
2019-06-26T09:26:47.692Z,62.30
2019-06-26T09:29:16.033Z,60.00
2019-06-26T09:31:44.267Z,59.00
2019-06-26T09:34:12.547Z,59.40
2019-06-26T09:36:40.811Z,59.00
2019-06-26T09:39:09.118Z,59.40
2019-06-26T09:41:37.365Z,61.50
2019-06-26T09:44:05.640Z,60.40
2019-06-26T09:46:33.941Z,60.70
2019-06-26T09:49:02.222Z,59.70
2019-06-26T09:51:30.585Z,59.20
2019-06-26T09:53:58.914Z,59.80
2019-06-26T09:56:27.176Z,60.40
2019-06-26T09:58:55.421Z,61.00
2019-06-26T10:01:23.674Z,58.90
2019-06-26T10:03:51.934Z,61.20
2019-06-26T10:06:20.260Z,59.80
2019-06-26T10:08:48.515Z,58.90
2019-06-26T10:11:16.790Z,58.60
2019-06-26T10:13:45.025Z,59.30
2019-06-26T10:16:13.298Z,58.90
2019-06-26T10:18:41.528Z,58.60
2019-06-26T10:21:09.791Z,58.90
2019-06-26T10:23:38.073Z,57.40
2019-06-26T10:26:06.419Z,58.70
2019-06-26T10:28:34.814Z,58.00
2019-06-26T10:31:03.085Z,58.10
2019-06-26T10:33:31.344Z,57.50
2019-06-26T10:35:59.590Z,57.80
2019-06-26T10:38:27.834Z,57.50
2019-06-26T10:40:56.093Z,58.90
2019-06-26T10:43:24.681Z,56.70
2019-06-26T10:45:52.990Z,57.20
2019-06-26T10:48:21.213Z,56.30
2019-06-26T10:50:57.899Z,58.40
2019-06-26T10:53:19.448Z,57.30
2019-06-26T10:55:47.691Z,56.90
2019-06-26T10:58:15.953Z,56.60
2019-06-26T11:00:44.234Z,57.60
2019-06-26T11:03:12.561Z,54.90
2019-06-26T11:05:41.647Z,55.50
2019-06-26T11:08:09.958Z,56.20
2019-06-26T11:10:38.189Z,56.00
2019-06-26T11:13:06.445Z,55.80
2019-06-26T11:15:34.693Z,55.90
2019-06-26T11:18:02.965Z,54.90
2019-06-26T11:20:31.295Z,54.50
2019-06-26T11:22:59.742Z,52.20
2019-06-26T11:25:28.048Z,51.90
2019-06-26T11:27:56.316Z,52.90
2019-06-26T11:30:24.551Z,50.40
2019-06-26T11:32:52.822Z,53.10
2019-06-26T11:35:21.068Z,52.40
2019-06-26T11:37:49.317Z,49.30
2019-06-26T11:40:17.654Z,46.90
2019-06-26T11:42:46.194Z,47.70
2019-06-26T11:45:14.571Z,46.10
2019-06-26T11:47:45.700Z,43.80
2019-06-26T11:50:12.881Z,42.90
2019-06-26T11:52:41.132Z,42.90
2019-06-26T11:55:09.476Z,44.80
2019-06-26T11:57:37.749Z,43.30
2019-06-26T12:00:14.349Z,47.90
2019-06-26T12:02:42.668Z,47.80
2019-06-26T12:05:11.797Z,47.20
2019-06-26T12:07:40.056Z,48.20
2019-06-26T12:10:10.025Z,45.60
2019-06-26T12:12:37.749Z,46.50
2019-06-26T12:15:06.841Z,46.40
2019-06-26T12:17:35.082Z,45.80
2019-06-26T12:20:17.814Z,44.10
2019-06-26T12:22:34.157Z,44.60
2019-06-26T12:25:02.500Z,44.20
2019-06-26T12:27:30.735Z,45.10
2019-06-26T12:29:59.005Z,44.80
2019-06-26T12:32:27.266Z,44.50
2019-06-26T12:34:55.806Z,44.90
2019-06-26T12:37:36.980Z,46.50
2019-06-26T12:39:54.146Z,48.10
2019-06-26T12:42:22.457Z,45.20
2019-06-26T12:44:50.745Z,46.20
2019-06-26T12:47:18.971Z,46.00
2019-06-26T12:49:47.230Z,45.30
2019-06-26T12:52:17.040Z,43.70
2019-06-26T12:54:44.935Z,45.20
2019-06-26T12:57:13.173Z,46.70
2019-06-26T12:59:56.003Z,46.70
2019-06-26T13:02:11.426Z,44.80
2019-06-26T13:04:39.689Z,43.70
2019-06-26T13:07:08.230Z,44.10
2019-06-26T13:09:36.615Z,44.50
2019-06-26T13:12:05.020Z,44.20
2019-06-26T13:14:33.289Z,44.50
2019-06-26T13:17:01.640Z,43.90
2019-06-26T13:19:29.971Z,44.90
2019-06-26T13:21:58.340Z,45.00
2019-06-26T13:24:26.619Z,45.40
2019-06-26T13:26:54.899Z,44.30
2019-06-26T13:29:23.304Z,43.00
2019-06-26T13:31:51.575Z,42.30
2019-06-26T13:34:19.805Z,42.50
2019-06-26T13:36:48.626Z,41.70
2019-06-26T13:39:16.906Z,40.70
2019-06-26T13:41:45.172Z,41.70
2019-06-26T13:44:13.411Z,40.50
2019-06-26T13:46:41.689Z,42.10
2019-06-26T13:49:09.999Z,40.50
2019-06-26T13:51:38.268Z,40.70
2019-06-26T13:54:06.505Z,39.50
2019-06-26T13:56:34.770Z,39.50
2019-06-26T13:59:03.039Z,39.10
2019-06-26T14:01:31.297Z,39.10
2019-06-26T14:03:59.557Z,39.50
2019-06-26T14:06:27.828Z,38.90
2019-06-26T14:08:56.154Z,37.70
2019-06-26T14:11:24.470Z,37.80
2019-06-26T14:13:52.735Z,38.20
2019-06-26T14:16:21.004Z,40.30
2019-06-26T14:18:49.242Z,36.90
2019-06-26T14:21:25.607Z,37.50
2019-06-26T14:23:46.794Z,37.80
2019-06-26T14:26:15.052Z,37.30
2019-06-26T14:28:43.309Z,36.00
2019-06-26T14:31:11.547Z,36.60
2019-06-26T14:33:39.816Z,35.20
2019-06-26T14:36:08.054Z,35.40
2019-06-26T14:38:36.317Z,37.20
2019-06-26T14:41:04.579Z,37.20
2019-06-26T14:43:32.897Z,37.90
2019-06-26T14:46:01.146Z,38.40
2019-06-26T14:48:29.417Z,36.80
2019-06-26T14:50:57.652Z,37.60
2019-06-26T14:53:27.557Z,39.20
2019-06-26T14:55:55.883Z,39.70
2019-06-26T14:58:24.292Z,40.20
2019-06-26T15:00:52.549Z,40.90
2019-06-26T15:03:20.870Z,40.80
2019-06-26T15:05:49.100Z,39.10
2019-06-26T15:08:17.367Z,38.30
2019-06-26T15:10:45.665Z,39.50
2019-06-26T15:13:13.919Z,37.50
2019-06-26T15:15:42.164Z,37.10
2019-06-26T15:18:11.571Z,36.90
2019-06-26T15:20:40.173Z,36.30
2019-06-26T15:23:08.446Z,35.40
2019-06-26T15:25:36.701Z,36.10
2019-06-26T15:28:04.999Z,36.20
2019-06-26T15:30:33.259Z,35.80
2019-06-26T15:33:01.575Z,38.70
2019-06-26T15:35:29.812Z,38.10
2019-06-26T15:37:58.059Z,38.10
2019-06-26T15:40:26.320Z,36.70
2019-06-26T15:42:54.612Z,37.00
2019-06-26T15:45:22.958Z,37.60
2019-06-26T15:47:51.209Z,36.10
2019-06-26T15:50:19.478Z,35.60
2019-06-26T15:52:47.727Z,39.70
2019-06-26T15:55:15.992Z,37.60
2019-06-26T15:57:44.256Z,37.70
2019-06-26T16:00:12.574Z,40.20
2019-06-26T16:02:40.934Z,41.60
2019-06-26T16:05:09.268Z,37.10
2019-06-26T16:07:37.530Z,39.60
2019-06-26T16:10:09.178Z,41.60
2019-06-26T16:12:37.433Z,38.80
2019-06-26T16:15:06.221Z,40.00
2019-06-26T16:17:42.107Z,42.00
2019-06-26T16:20:10.426Z,42.00
2019-06-26T16:22:38.672Z,38.90
2019-06-26T16:25:07.423Z,40.30
2019-06-26T16:27:35.715Z,42.50
2019-06-26T16:30:08.156Z,42.20
2019-06-26T16:32:36.445Z,42.30
2019-06-26T16:35:06.742Z,41.30
2019-06-26T16:37:35.023Z,42.80
2019-06-26T16:40:04.920Z,45.20
2019-06-26T16:42:32.464Z,44.10
2019-06-26T16:45:00.737Z,42.90
2019-06-26T16:47:28.968Z,43.20
2019-06-26T16:49:57.236Z,43.30
2019-06-26T16:52:25.470Z,44.90
2019-06-26T16:54:53.734Z,43.70
2019-06-26T16:57:21.965Z,42.40
2019-06-26T16:59:50.239Z,43.00
2019-06-26T17:02:18.523Z,45.20
2019-06-26T17:04:46.762Z,44.60
2019-06-26T17:07:15.042Z,42.90
2019-06-26T17:09:44.403Z,45.00
2019-06-26T17:12:12.822Z,42.20
2019-06-26T17:14:41.075Z,42.30
2019-06-26T17:17:09.416Z,43.30
2019-06-26T17:19:37.669Z,43.10
2019-06-26T17:22:05.938Z,42.80
2019-06-26T17:24:34.194Z,42.60
2019-06-26T17:27:02.464Z,42.90
2019-06-26T17:29:30.718Z,43.30
2019-06-26T17:31:58.991Z,43.50
2019-06-26T17:34:27.441Z,44.50
2019-06-26T17:36:55.785Z,43.30
2019-06-26T17:39:24.042Z,41.70
2019-06-26T17:41:52.309Z,41.40
2019-06-26T17:44:20.557Z,40.40
2019-06-26T17:46:48.853Z,40.40
2019-06-26T17:49:17.107Z,39.30
2019-06-26T17:51:45.411Z,38.90
2019-06-26T17:54:13.673Z,38.30
2019-06-26T17:56:41.928Z,37.40
2019-06-26T17:59:10.222Z,37.30
2019-06-26T18:01:38.550Z,41.60
2019-06-26T18:04:06.790Z,42.10
2019-06-26T18:06:35.035Z,45.00
2019-06-26T18:09:03.295Z,45.10
2019-06-26T18:11:31.549Z,41.70
2019-06-26T18:13:59.900Z,46.50
2019-06-26T18:16:28.156Z,37.80
2019-06-26T18:18:56.441Z,37.50
2019-06-26T18:21:24.759Z,37.60
2019-06-26T18:23:53.099Z,38.80
2019-06-26T18:26:21.350Z,40.60
2019-06-26T18:28:49.617Z,43.00
2019-06-26T18:31:17.909Z,52.00
2019-06-26T18:33:46.179Z,47.70
2019-06-26T18:36:14.413Z,58.70
2019-06-26T18:38:42.689Z,55.40
2019-06-26T18:41:10.944Z,52.60
2019-06-26T18:43:39.235Z,54.10
2019-06-26T18:46:07.576Z,55.10
2019-06-26T18:48:35.847Z,56.20
2019-06-26T18:51:04.102Z,57.20
2019-06-26T18:53:32.368Z,57.80
2019-06-26T18:56:00.619Z,58.50
2019-06-26T18:58:30.869Z,59.20
2019-06-26T19:00:58.869Z,59.90
2019-06-26T19:03:27.120Z,60.80
2019-06-26T19:05:55.373Z,61.50
2019-06-26T19:08:23.606Z,62.20
2019-06-26T19:10:51.871Z,63.30
2019-06-26T19:13:20.672Z,63.70
2019-06-26T19:15:49.065Z,64.60
2019-06-26T19:18:17.344Z,65.10
2019-06-26T19:20:45.589Z,65.50
2019-06-26T19:23:13.855Z,66.60
2019-06-26T19:25:42.153Z,67.20
2019-06-26T19:28:10.406Z,68.20
2019-06-26T19:30:38.676Z,68.60
2019-06-26T19:33:06.987Z,68.70
2019-06-26T19:35:35.277Z,69.30
2019-06-26T19:38:03.529Z,70.10
2019-06-26T19:40:31.818Z,70.70
2019-06-26T19:43:00.065Z,71.20
2019-06-26T19:45:28.414Z,71.30
2019-06-26T19:47:56.685Z,72.00
2019-06-26T19:50:24.941Z,72.00
2019-06-26T19:52:53.178Z,72.20
2019-06-26T19:55:21.472Z,72.70
2019-06-26T19:57:50.255Z,73.10
2019-06-26T20:00:18.556Z,73.50
2019-06-26T20:02:46.856Z,73.80
2019-06-26T20:05:15.134Z,74.30
2019-06-26T20:07:43.464Z,74.40
2019-06-26T20:10:11.725Z,74.90
2019-06-26T20:12:39.970Z,75.40
2019-06-26T20:15:08.245Z,75.80
2019-06-26T20:17:36.480Z,76.00
2019-06-26T20:20:06.757Z,76.10
2019-06-26T20:22:34.996Z,76.70
2019-06-26T20:25:04.207Z,78.00
2019-06-26T20:27:32.437Z,77.90
2019-06-26T20:30:00.701Z,77.80
2019-06-26T20:32:29.037Z,78.30
2019-06-26T20:34:57.293Z,78.20
2019-06-26T20:37:25.570Z,78.70
2019-06-26T20:39:53.860Z,79.10
2019-06-26T20:42:22.118Z,79.10
2019-06-26T20:44:50.468Z,79.60
2019-06-26T20:47:18.725Z,80.10
2019-06-26T20:49:53.211Z,81.00
2019-06-26T20:52:16.957Z,80.00
2019-06-26T20:54:59.899Z,80.00
2019-06-26T20:57:15.195Z,80.00
2019-06-26T20:59:43.441Z,80.10
2019-06-26T21:02:11.693Z,81.30
2019-06-26T21:04:39.954Z,81.00
2019-06-26T21:07:08.218Z,81.30
2019-06-26T21:09:36.454Z,81.70
2019-06-26T21:12:04.715Z,82.10
2019-06-26T21:14:32.960Z,82.00
2019-06-26T21:17:01.249Z,82.10
2019-06-26T21:19:29.494Z,82.10
2019-06-26T21:21:57.763Z,82.30
2019-06-26T21:24:26.021Z,82.10
2019-06-26T21:26:54.278Z,82.30
2019-06-26T21:29:22.520Z,83.00
2019-06-26T21:31:50.783Z,83.20
2019-06-26T21:34:19.024Z,83.30
2019-06-26T21:36:47.311Z,83.30
2019-06-26T21:39:15.545Z,83.60
2019-06-26T21:41:43.818Z,83.60
2019-06-26T21:44:12.066Z,84.10
2019-06-26T21:46:40.353Z,84.00
2019-06-26T21:49:08.590Z,84.10
2019-06-26T21:51:36.845Z,84.80
2019-06-26T21:54:05.113Z,84.50
2019-06-26T21:56:33.349Z,84.90
2019-06-26T21:59:01.619Z,84.40
2019-06-26T22:01:32.903Z,84.90
2019-06-26T22:04:01.885Z,84.90
2019-06-26T22:06:30.135Z,85.00
2019-06-26T22:08:58.402Z,84.90
2019-06-26T22:11:26.645Z,85.10
2019-06-26T22:13:54.936Z,85.50
2019-06-26T22:16:23.279Z,85.50
2019-06-26T22:18:51.574Z,85.00
2019-06-26T22:21:19.829Z,85.20
2019-06-26T22:23:48.068Z,85.40
2019-06-26T22:26:16.322Z,85.70
2019-06-26T22:28:44.579Z,85.20
2019-06-26T22:31:12.822Z,85.30
2019-06-26T22:33:41.093Z,85.30
2019-06-26T22:36:09.358Z,86.20
2019-06-26T22:38:37.627Z,86.30
2019-06-26T22:41:05.864Z,86.30
2019-06-26T22:43:34.212Z,85.90
2019-06-26T22:46:02.476Z,86.80
2019-06-26T22:48:30.798Z,86.10
2019-06-26T22:50:59.048Z,86.00
2019-06-26T22:53:27.306Z,86.00
2019-06-26T22:56:07.173Z,86.10
2019-06-26T22:58:25.545Z,86.30
2019-06-26T23:00:53.788Z,86.60
2019-06-26T23:03:22.053Z,86.40
2019-06-26T23:05:50.327Z,86.70
2019-06-26T23:08:18.570Z,86.60
2019-06-26T23:10:46.833Z,86.80
2019-06-26T23:13:15.082Z,86.90
2019-06-26T23:15:43.343Z,87.10
2019-06-26T23:18:11.610Z,86.70
2019-06-26T23:20:40.706Z,86.70
2019-06-26T23:23:08.956Z,86.70
2019-06-26T23:25:37.226Z,86.80
2019-06-26T23:28:05.464Z,87.30
2019-06-26T23:30:33.742Z,88.10
2019-06-26T23:33:02.078Z,88.00
2019-06-26T23:35:30.339Z,87.70
2019-06-26T23:37:58.591Z,87.50
2019-06-26T23:40:26.859Z,87.60
2019-06-26T23:42:55.114Z,87.50
2019-06-26T23:45:23.390Z,87.80
2019-06-26T23:47:51.662Z,87.70
2019-06-26T23:50:19.945Z,88.20
2019-06-26T23:52:48.197Z,88.80
2019-06-26T23:55:16.455Z,89.50
2019-06-26T23:57:58.617Z,88.90
